sensor_id;sensor_type;location;lat;lon;timestamp;P1;durP1;ratioP1;P2;durP2;ratioP2
57291;SDS011;43144;50.972;18.220;2022-08-11T00:01:10;18.30;;;13.50;;
57291;SDS011;43144;50.972;18.220;2022-08-11T00:03:45;7.80;;;6.40;;
57291;SDS011;43144;50.972;18.220;2022-08-11T00:06:14;12.70;;;10.40;;
57291;SDS011;43144;50.972;18.220;2022-08-11T00:08:51;8.10;;;7.30;;
57291;SDS011;43144;50.972;18.220;2022-08-11T00:11:21;9.30;;;8.50;;
57291;SDS011;43144;50.972;18.220;2022-08-11T00:13:54;7.70;;;7.10;;
57291;SDS011;43144;50.972;18.220;2022-08-11T00:16:22;8.00;;;7.20;;
57291;SDS011;43144;50.972;18.220;2022-08-11T00:18:52;17.80;;;14.10;;
57291;SDS011;43144;50.972;18.220;2022-08-11T00:21:21;12.30;;;10.90;;
57291;SDS011;43144;50.972;18.220;2022-08-11T00:23:53;9.60;;;8.70;;
57291;SDS011;43144;50.972;18.220;2022-08-11T00:26:22;9.50;;;8.70;;
57291;SDS011;43144;50.972;18.220;2022-08-11T00:28:52;10.10;;;9.10;;
57291;SDS011;43144;50.972;18.220;2022-08-11T00:31:23;9.40;;;8.50;;
57291;SDS011;43144;50.972;18.220;2022-08-11T00:33:53;9.00;;;8.10;;
57291;SDS011;43144;50.972;18.220;2022-08-11T00:36:25;8.30;;;7.40;;
57291;SDS011;43144;50.972;18.220;2022-08-11T00:39:02;8.30;;;7.50;;
57291;SDS011;43144;50.972;18.220;2022-08-11T00:41:33;8.30;;;7.00;;
57291;SDS011;43144;50.972;18.220;2022-08-11T00:46:52;7.50;;;6.40;;
57291;SDS011;43144;50.972;18.220;2022-08-11T00:49:29;6.80;;;6.10;;
57291;SDS011;43144;50.972;18.220;2022-08-11T00:52:09;6.70;;;6.10;;
57291;SDS011;43144;50.972;18.220;2022-08-11T00:54:49;6.40;;;5.00;;
57291;SDS011;43144;50.972;18.220;2022-08-11T00:57:36;5.70;;;5.10;;
57291;SDS011;43144;50.972;18.220;2022-08-11T01:00:26;5.80;;;5.20;;
57291;SDS011;43144;50.972;18.220;2022-08-11T01:03:05;5.80;;;5.30;;
57291;SDS011;43144;50.972;18.220;2022-08-11T01:05:48;6.00;;;5.10;;
57291;SDS011;43144;50.972;18.220;2022-08-11T01:11:15;6.80;;;6.10;;
57291;SDS011;43144;50.972;18.220;2022-08-11T01:27:54;7.10;;;6.50;;
57291;SDS011;43144;50.972;18.220;2022-08-11T01:30:47;8.90;;;7.80;;
57291;SDS011;43144;50.972;18.220;2022-08-11T01:36:26;7.10;;;6.40;;
57291;SDS011;43144;50.972;18.220;2022-08-11T01:47:31;9.20;;;7.00;;
57291;SDS011;43144;50.972;18.220;2022-08-11T01:50:08;7.50;;;6.80;;
57291;SDS011;43144;50.972;18.220;2022-08-11T01:52:46;9.40;;;7.40;;
57291;SDS011;43144;50.972;18.220;2022-08-11T01:55:24;10.80;;;7.60;;
57291;SDS011;43144;50.972;18.220;2022-08-11T01:58:04;10.10;;;8.10;;
57291;SDS011;43144;50.972;18.220;2022-08-11T02:00:47;8.90;;;7.90;;
57291;SDS011;43144;50.972;18.220;2022-08-11T02:03:19;11.30;;;7.50;;
57291;SDS011;43144;50.972;18.220;2022-08-11T02:05:56;8.70;;;7.50;;
57291;SDS011;43144;50.972;18.220;2022-08-11T02:08:33;9.30;;;7.70;;
57291;SDS011;43144;50.972;18.220;2022-08-11T02:11:21;9.50;;;8.10;;
57291;SDS011;43144;50.972;18.220;2022-08-11T02:13:52;8.40;;;7.50;;
57291;SDS011;43144;50.972;18.220;2022-08-11T02:16:31;8.30;;;7.00;;
57291;SDS011;43144;50.972;18.220;2022-08-11T02:19:07;8.20;;;7.40;;
57291;SDS011;43144;50.972;18.220;2022-08-11T02:21:49;9.00;;;8.10;;
57291;SDS011;43144;50.972;18.220;2022-08-11T02:24:22;8.70;;;7.90;;
57291;SDS011;43144;50.972;18.220;2022-08-11T02:26:55;9.90;;;8.10;;
57291;SDS011;43144;50.972;18.220;2022-08-11T02:29:28;10.50;;;7.70;;
57291;SDS011;43144;50.972;18.220;2022-08-11T02:32:03;8.80;;;7.90;;
57291;SDS011;43144;50.972;18.220;2022-08-11T02:34:37;8.40;;;7.40;;
57291;SDS011;43144;50.972;18.220;2022-08-11T02:37:12;8.20;;;7.20;;
57291;SDS011;43144;50.972;18.220;2022-08-11T02:39:47;8.10;;;7.30;;
57291;SDS011;43144;50.972;18.220;2022-08-11T02:42:28;8.50;;;7.70;;
57291;SDS011;43144;50.972;18.220;2022-08-11T02:45:01;8.20;;;7.50;;
57291;SDS011;43144;50.972;18.220;2022-08-11T02:47:38;8.00;;;7.30;;
57291;SDS011;43144;50.972;18.220;2022-08-11T02:50:12;8.30;;;6.90;;
57291;SDS011;43144;50.972;18.220;2022-08-11T02:52:54;8.10;;;7.10;;
57291;SDS011;43144;50.972;18.220;2022-08-11T02:55:29;9.30;;;7.70;;
57291;SDS011;43144;50.972;18.220;2022-08-11T02:58:02;8.10;;;7.30;;
57291;SDS011;43144;50.972;18.220;2022-08-11T03:00:42;7.30;;;6.60;;
57291;SDS011;43144;50.972;18.220;2022-08-11T03:03:18;7.70;;;6.70;;
57291;SDS011;43144;50.972;18.220;2022-08-11T03:05:51;8.20;;;7.00;;
57291;SDS011;43144;50.972;18.220;2022-08-11T03:08:28;10.20;;;7.10;;
57291;SDS011;43144;50.972;18.220;2022-08-11T03:11:04;7.70;;;7.00;;
57291;SDS011;43144;50.972;18.220;2022-08-11T03:13:40;7.50;;;6.80;;
57291;SDS011;43144;50.972;18.220;2022-08-11T03:16:14;8.30;;;7.60;;
57291;SDS011;43144;50.972;18.220;2022-08-11T03:18:48;9.30;;;8.50;;
57291;SDS011;43144;50.972;18.220;2022-08-11T03:21:23;10.30;;;8.00;;
57291;SDS011;43144;50.972;18.220;2022-08-11T03:23:57;8.00;;;7.30;;
57291;SDS011;43144;50.972;18.220;2022-08-11T03:26:30;8.80;;;7.70;;
57291;SDS011;43144;50.972;18.220;2022-08-11T03:29:04;8.50;;;7.70;;
57291;SDS011;43144;50.972;18.220;2022-08-11T03:31:36;8.70;;;7.90;;
57291;SDS011;43144;50.972;18.220;2022-08-11T03:34:13;8.70;;;7.90;;
57291;SDS011;43144;50.972;18.220;2022-08-11T03:39:18;10.70;;;8.70;;
57291;SDS011;43144;50.972;18.220;2022-08-11T03:41:51;11.30;;;9.70;;
57291;SDS011;43144;50.972;18.220;2022-08-11T03:44:27;11.20;;;9.30;;
57291;SDS011;43144;50.972;18.220;2022-08-11T03:47:05;10.20;;;9.10;;
57291;SDS011;43144;50.972;18.220;2022-08-11T03:49:43;10.20;;;9.00;;
57291;SDS011;43144;50.972;18.220;2022-08-11T03:52:28;9.70;;;8.80;;
57291;SDS011;43144;50.972;18.220;2022-08-11T03:55:09;10.30;;;9.20;;
57291;SDS011;43144;50.972;18.220;2022-08-11T04:00:38;10.00;;;8.90;;
57291;SDS011;43144;50.972;18.220;2022-08-11T04:11:47;11.90;;;10.70;;
57291;SDS011;43144;50.972;18.220;2022-08-11T04:14:30;12.80;;;10.40;;
57291;SDS011;43144;50.972;18.220;2022-08-11T04:17:21;14.60;;;9.90;;
57291;SDS011;43144;50.972;18.220;2022-08-11T04:25:30;9.90;;;8.90;;
57291;SDS011;43144;50.972;18.220;2022-08-11T04:28:19;11.60;;;9.60;;
57291;SDS011;43144;50.972;18.220;2022-08-11T04:31:03;10.80;;;9.70;;
57291;SDS011;43144;50.972;18.220;2022-08-11T04:33:42;10.80;;;9.30;;
57291;SDS011;43144;50.972;18.220;2022-08-11T04:36:35;9.60;;;8.70;;
57291;SDS011;43144;50.972;18.220;2022-08-11T04:39:14;9.40;;;8.50;;
57291;SDS011;43144;50.972;18.220;2022-08-11T04:41:57;10.60;;;9.20;;
57291;SDS011;43144;50.972;18.220;2022-08-11T04:44:48;8.50;;;7.80;;
57291;SDS011;43144;50.972;18.220;2022-08-11T04:47:42;8.60;;;7.70;;
57291;SDS011;43144;50.972;18.220;2022-08-11T04:50:16;8.90;;;8.20;;
57291;SDS011;43144;50.972;18.220;2022-08-11T05:03:27;7.70;;;6.90;;
57291;SDS011;43144;50.972;18.220;2022-08-11T05:06:13;10.70;;;7.10;;
57291;SDS011;43144;50.972;18.220;2022-08-11T05:09:04;7.90;;;7.20;;
57291;SDS011;43144;50.972;18.220;2022-08-11T05:11:51;8.00;;;7.30;;
57291;SDS011;43144;50.972;18.220;2022-08-11T05:14:28;8.00;;;6.70;;
57291;SDS011;43144;50.972;18.220;2022-08-11T05:16:58;8.00;;;7.20;;
57291;SDS011;43144;50.972;18.220;2022-08-11T05:19:31;8.90;;;7.50;;
57291;SDS011;43144;50.972;18.220;2022-08-11T05:22:00;8.80;;;7.70;;
57291;SDS011;43144;50.972;18.220;2022-08-11T05:24:33;9.20;;;7.40;;
57291;SDS011;43144;50.972;18.220;2022-08-11T05:27:04;10.10;;;7.50;;
57291;SDS011;43144;50.972;18.220;2022-08-11T05:29:38;9.20;;;7.70;;
57291;SDS011;43144;50.972;18.220;2022-08-11T05:32:08;8.80;;;7.60;;
57291;SDS011;43144;50.972;18.220;2022-08-11T05:37:11;11.70;;;7.50;;
57291;SDS011;43144;50.972;18.220;2022-08-11T05:39:42;8.00;;;7.10;;
57291;SDS011;43144;50.972;18.220;2022-08-11T05:42:12;8.00;;;7.30;;
57291;SDS011;43144;50.972;18.220;2022-08-11T05:44:46;7.40;;;6.60;;
57291;SDS011;43144;50.972;18.220;2022-08-11T05:47:21;6.50;;;5.80;;
57291;SDS011;43144;50.972;18.220;2022-08-11T05:49:51;9.30;;;5.70;;
57291;SDS011;43144;50.972;18.220;2022-08-11T05:52:21;7.20;;;4.60;;
57291;SDS011;43144;50.972;18.220;2022-08-11T05:54:50;5.40;;;4.00;;
57291;SDS011;43144;50.972;18.220;2022-08-11T05:57:19;5.30;;;4.10;;
57291;SDS011;43144;50.972;18.220;2022-08-11T05:59:49;8.90;;;4.20;;
57291;SDS011;43144;50.972;18.220;2022-08-11T06:02:26;6.50;;;3.90;;
57291;SDS011;43144;50.972;18.220;2022-08-11T06:04:56;5.10;;;3.80;;
57291;SDS011;43144;50.972;18.220;2022-08-11T06:07:27;5.60;;;3.70;;
57291;SDS011;43144;50.972;18.220;2022-08-11T06:09:56;6.70;;;3.40;;
57291;SDS011;43144;50.972;18.220;2022-08-11T06:12:26;5.20;;;3.80;;
57291;SDS011;43144;50.972;18.220;2022-08-11T06:14:56;3.70;;;3.40;;
57291;SDS011;43144;50.972;18.220;2022-08-11T06:17:27;4.10;;;3.40;;
57291;SDS011;43144;50.972;18.220;2022-08-11T06:19:58;4.20;;;3.00;;
57291;SDS011;43144;50.972;18.220;2022-08-11T06:22:27;4.10;;;2.80;;
57291;SDS011;43144;50.972;18.220;2022-08-11T06:24:57;3.30;;;2.90;;
57291;SDS011;43144;50.972;18.220;2022-08-11T06:27:28;4.00;;;3.00;;
57291;SDS011;43144;50.972;18.220;2022-08-11T06:29:58;6.50;;;2.80;;
57291;SDS011;43144;50.972;18.220;2022-08-11T06:32:27;5.00;;;3.10;;
57291;SDS011;43144;50.972;18.220;2022-08-11T06:35:03;5.30;;;3.40;;
57291;SDS011;43144;50.972;18.220;2022-08-11T06:37:38;4.20;;;2.90;;
57291;SDS011;43144;50.972;18.220;2022-08-11T06:40:11;5.60;;;2.90;;
57291;SDS011;43144;50.972;18.220;2022-08-11T06:42:49;3.10;;;2.60;;
57291;SDS011;43144;50.972;18.220;2022-08-11T06:45:28;3.40;;;2.70;;
57291;SDS011;43144;50.972;18.220;2022-08-11T06:47:58;5.00;;;2.40;;
57291;SDS011;43144;50.972;18.220;2022-08-11T06:50:27;3.90;;;2.60;;
57291;SDS011;43144;50.972;18.220;2022-08-11T06:52:56;3.10;;;2.50;;
57291;SDS011;43144;50.972;18.220;2022-08-11T06:55:25;2.90;;;2.60;;
57291;SDS011;43144;50.972;18.220;2022-08-11T06:57:54;3.80;;;2.80;;
57291;SDS011;43144;50.972;18.220;2022-08-11T07:00:22;8.70;;;3.40;;
57291;SDS011;43144;50.972;18.220;2022-08-11T07:02:52;6.20;;;2.80;;
57291;SDS011;43144;50.972;18.220;2022-08-11T07:05:24;4.90;;;2.70;;
57291;SDS011;43144;50.972;18.220;2022-08-11T07:10:43;3.10;;;2.30;;
57291;SDS011;43144;50.972;18.220;2022-08-11T07:13:15;5.90;;;2.40;;
57291;SDS011;43144;50.972;18.220;2022-08-11T07:15:46;5.00;;;2.20;;
57291;SDS011;43144;50.972;18.220;2022-08-11T07:18:19;4.00;;;2.20;;
57291;SDS011;43144;50.972;18.220;2022-08-11T07:20:48;4.90;;;2.30;;
57291;SDS011;43144;50.972;18.220;2022-08-11T07:23:17;5.70;;;2.30;;
57291;SDS011;43144;50.972;18.220;2022-08-11T07:25:46;5.60;;;2.30;;
57291;SDS011;43144;50.972;18.220;2022-08-11T07:28:21;4.20;;;2.10;;
57291;SDS011;43144;50.972;18.220;2022-08-11T07:30:53;4.70;;;2.10;;
57291;SDS011;43144;50.972;18.220;2022-08-11T07:33:37;3.10;;;1.90;;
57291;SDS011;43144;50.972;18.220;2022-08-11T07:36:10;3.80;;;1.80;;
57291;SDS011;43144;50.972;18.220;2022-08-11T07:38:40;4.20;;;2.00;;
57291;SDS011;43144;50.972;18.220;2022-08-11T07:41:09;2.30;;;2.00;;
57291;SDS011;43144;50.972;18.220;2022-08-11T07:43:39;2.90;;;2.00;;
57291;SDS011;43144;50.972;18.220;2022-08-11T07:46:08;4.00;;;1.50;;
57291;SDS011;43144;50.972;18.220;2022-08-11T07:48:37;5.80;;;1.90;;
57291;SDS011;43144;50.972;18.220;2022-08-11T07:51:08;2.10;;;1.60;;
57291;SDS011;43144;50.972;18.220;2022-08-11T07:53:37;2.50;;;1.50;;
57291;SDS011;43144;50.972;18.220;2022-08-11T07:56:05;3.70;;;1.60;;
57291;SDS011;43144;50.972;18.220;2022-08-11T07:58:34;3.90;;;1.60;;
57291;SDS011;43144;50.972;18.220;2022-08-11T08:01:03;2.90;;;1.60;;
57291;SDS011;43144;50.972;18.220;2022-08-11T08:03:32;3.30;;;1.60;;
57291;SDS011;43144;50.972;18.220;2022-08-11T08:06:00;1.80;;;1.30;;
57291;SDS011;43144;50.972;18.220;2022-08-11T08:08:28;2.60;;;1.20;;
57291;SDS011;43144;50.972;18.220;2022-08-11T08:10:57;2.20;;;1.10;;
57291;SDS011;43144;50.972;18.220;2022-08-11T08:13:26;3.00;;;1.30;;
57291;SDS011;43144;50.972;18.220;2022-08-11T08:15:54;3.30;;;1.40;;
57291;SDS011;43144;50.972;18.220;2022-08-11T08:18:23;3.60;;;1.80;;
57291;SDS011;43144;50.972;18.220;2022-08-11T08:20:52;4.30;;;1.90;;
57291;SDS011;43144;50.972;18.220;2022-08-11T08:23:25;3.60;;;1.50;;
57291;SDS011;43144;50.972;18.220;2022-08-11T08:25:53;2.70;;;1.50;;
57291;SDS011;43144;50.972;18.220;2022-08-11T08:28:21;3.20;;;1.30;;
57291;SDS011;43144;50.972;18.220;2022-08-11T08:30:50;3.30;;;1.20;;
57291;SDS011;43144;50.972;18.220;2022-08-11T08:33:20;2.90;;;1.40;;
57291;SDS011;43144;50.972;18.220;2022-08-11T08:35:50;2.50;;;1.40;;
57291;SDS011;43144;50.972;18.220;2022-08-11T08:38:21;2.40;;;1.20;;
57291;SDS011;43144;50.972;18.220;2022-08-11T08:40:49;3.80;;;1.70;;
57291;SDS011;43144;50.972;18.220;2022-08-11T08:43:19;4.60;;;1.60;;
57291;SDS011;43144;50.972;18.220;2022-08-11T08:45:49;3.40;;;1.70;;
57291;SDS011;43144;50.972;18.220;2022-08-11T08:48:22;5.40;;;1.60;;
57291;SDS011;43144;50.972;18.220;2022-08-11T08:50:52;3.70;;;1.70;;
57291;SDS011;43144;50.972;18.220;2022-08-11T08:53:24;2.70;;;1.60;;
57291;SDS011;43144;50.972;18.220;2022-08-11T08:55:55;4.60;;;1.60;;
57291;SDS011;43144;50.972;18.220;2022-08-11T08:58:25;4.70;;;1.40;;
57291;SDS011;43144;50.972;18.220;2022-08-11T09:00:54;2.70;;;1.20;;
57291;SDS011;43144;50.972;18.220;2022-08-11T09:03:24;5.50;;;1.40;;
57291;SDS011;43144;50.972;18.220;2022-08-11T09:05:53;1.70;;;1.40;;
57291;SDS011;43144;50.972;18.220;2022-08-11T09:08:22;5.50;;;1.50;;
57291;SDS011;43144;50.972;18.220;2022-08-11T09:10:51;5.00;;;1.40;;
57291;SDS011;43144;50.972;18.220;2022-08-11T09:13:21;4.00;;;1.40;;
57291;SDS011;43144;50.972;18.220;2022-08-11T09:15:49;2.10;;;1.20;;
57291;SDS011;43144;50.972;18.220;2022-08-11T09:18:17;3.90;;;1.30;;
57291;SDS011;43144;50.972;18.220;2022-08-11T09:20:46;3.60;;;1.20;;
57291;SDS011;43144;50.972;18.220;2022-08-11T09:23:14;2.30;;;1.50;;
57291;SDS011;43144;50.972;18.220;2022-08-11T09:25:42;2.90;;;1.30;;
57291;SDS011;43144;50.972;18.220;2022-08-11T09:28:12;1.70;;;1.30;;
57291;SDS011;43144;50.972;18.220;2022-08-11T09:30:42;4.00;;;1.30;;
57291;SDS011;43144;50.972;18.220;2022-08-11T09:33:12;3.60;;;1.30;;
57291;SDS011;43144;50.972;18.220;2022-08-11T09:35:42;6.80;;;1.40;;
57291;SDS011;43144;50.972;18.220;2022-08-11T09:38:12;3.50;;;1.30;;
57291;SDS011;43144;50.972;18.220;2022-08-11T09:40:42;4.50;;;1.20;;
57291;SDS011;43144;50.972;18.220;2022-08-11T09:43:13;1.30;;;1.00;;
57291;SDS011;43144;50.972;18.220;2022-08-11T09:45:44;3.30;;;1.10;;
57291;SDS011;43144;50.972;18.220;2022-08-11T09:48:12;2.90;;;2.00;;
57291;SDS011;43144;50.972;18.220;2022-08-11T09:50:41;4.80;;;1.40;;
57291;SDS011;43144;50.972;18.220;2022-08-11T09:53:10;2.90;;;0.90;;
57291;SDS011;43144;50.972;18.220;2022-08-11T09:55:39;4.30;;;1.00;;
57291;SDS011;43144;50.972;18.220;2022-08-11T09:58:07;1.60;;;1.00;;
57291;SDS011;43144;50.972;18.220;2022-08-11T10:00:35;2.40;;;1.10;;
57291;SDS011;43144;50.972;18.220;2022-08-11T10:03:05;1.70;;;1.20;;
57291;SDS011;43144;50.972;18.220;2022-08-11T10:05:35;2.80;;;1.10;;
57291;SDS011;43144;50.972;18.220;2022-08-11T10:08:04;3.70;;;1.00;;
57291;SDS011;43144;50.972;18.220;2022-08-11T10:10:35;2.30;;;1.10;;
57291;SDS011;43144;50.972;18.220;2022-08-11T10:13:05;3.30;;;0.90;;
57291;SDS011;43144;50.972;18.220;2022-08-11T10:15:34;2.00;;;0.90;;
57291;SDS011;43144;50.972;18.220;2022-08-11T10:18:05;2.10;;;1.00;;
57291;SDS011;43144;50.972;18.220;2022-08-11T10:20:35;3.10;;;1.00;;
57291;SDS011;43144;50.972;18.220;2022-08-11T10:23:03;3.10;;;1.00;;
57291;SDS011;43144;50.972;18.220;2022-08-11T10:25:32;2.10;;;1.20;;
57291;SDS011;43144;50.972;18.220;2022-08-11T10:28:00;1.50;;;1.10;;
57291;SDS011;43144;50.972;18.220;2022-08-11T10:30:31;2.50;;;0.90;;
57291;SDS011;43144;50.972;18.220;2022-08-11T10:33:01;2.20;;;1.10;;
57291;SDS011;43144;50.972;18.220;2022-08-11T10:35:30;5.20;;;1.30;;
57291;SDS011;43144;50.972;18.220;2022-08-11T10:37:59;2.40;;;1.50;;
57291;SDS011;43144;50.972;18.220;2022-08-11T10:40:27;8.10;;;2.10;;
57291;SDS011;43144;50.972;18.220;2022-08-11T10:42:57;5.60;;;1.90;;
57291;SDS011;43144;50.972;18.220;2022-08-11T10:45:26;3.10;;;2.10;;
57291;SDS011;43144;50.972;18.220;2022-08-11T10:47:55;1.90;;;0.90;;
57291;SDS011;43144;50.972;18.220;2022-08-11T10:50:24;3.00;;;1.10;;
57291;SDS011;43144;50.972;18.220;2022-08-11T10:52:52;2.60;;;1.00;;
57291;SDS011;43144;50.972;18.220;2022-08-11T10:55:23;4.10;;;0.90;;
57291;SDS011;43144;50.972;18.220;2022-08-11T10:57:52;1.70;;;0.90;;
57291;SDS011;43144;50.972;18.220;2022-08-11T11:00:20;3.20;;;1.10;;
57291;SDS011;43144;50.972;18.220;2022-08-11T11:02:48;3.80;;;1.10;;
57291;SDS011;43144;50.972;18.220;2022-08-11T11:05:21;2.50;;;1.20;;
57291;SDS011;43144;50.972;18.220;2022-08-11T11:07:54;2.80;;;0.90;;
57291;SDS011;43144;50.972;18.220;2022-08-11T11:10:23;1.70;;;0.90;;
57291;SDS011;43144;50.972;18.220;2022-08-11T11:12:53;3.60;;;1.20;;
57291;SDS011;43144;50.972;18.220;2022-08-11T11:15:22;3.20;;;1.00;;
57291;SDS011;43144;50.972;18.220;2022-08-11T11:17:54;1.00;;;0.80;;
57291;SDS011;43144;50.972;18.220;2022-08-11T11:20:25;2.00;;;0.80;;
57291;SDS011;43144;50.972;18.220;2022-08-11T11:22:56;2.50;;;0.90;;
57291;SDS011;43144;50.972;18.220;2022-08-11T11:25:31;1.30;;;0.80;;
57291;SDS011;43144;50.972;18.220;2022-08-11T11:35:36;1.90;;;1.00;;
57291;SDS011;43144;50.972;18.220;2022-08-11T11:38:09;4.80;;;1.50;;
57291;SDS011;43144;50.972;18.220;2022-08-11T11:40:38;4.40;;;1.30;;
57291;SDS011;43144;50.972;18.220;2022-08-11T11:43:07;1.90;;;1.00;;
57291;SDS011;43144;50.972;18.220;2022-08-11T11:45:45;3.20;;;1.10;;
57291;SDS011;43144;50.972;18.220;2022-08-11T11:48:23;1.70;;;0.80;;
57291;SDS011;43144;50.972;18.220;2022-08-11T11:51:01;3.60;;;1.50;;
57291;SDS011;43144;50.972;18.220;2022-08-11T11:53:40;3.80;;;1.00;;
57291;SDS011;43144;50.972;18.220;2022-08-11T11:56:19;1.60;;;0.90;;
57291;SDS011;43144;50.972;18.220;2022-08-11T11:58:59;2.70;;;1.00;;
57291;SDS011;43144;50.972;18.220;2022-08-11T12:01:37;3.10;;;0.70;;
57291;SDS011;43144;50.972;18.220;2022-08-11T12:04:15;1.30;;;0.80;;
57291;SDS011;43144;50.972;18.220;2022-08-11T12:06:54;1.00;;;0.80;;
57291;SDS011;43144;50.972;18.220;2022-08-11T12:09:32;2.90;;;0.80;;
57291;SDS011;43144;50.972;18.220;2022-08-11T12:12:10;4.20;;;0.80;;
57291;SDS011;43144;50.972;18.220;2022-08-11T12:14:49;2.70;;;0.80;;
57291;SDS011;43144;50.972;18.220;2022-08-11T12:17:27;1.70;;;0.80;;
57291;SDS011;43144;50.972;18.220;2022-08-11T12:19:57;3.60;;;0.90;;
57291;SDS011;43144;50.972;18.220;2022-08-11T12:22:26;5.90;;;1.00;;
57291;SDS011;43144;50.972;18.220;2022-08-11T12:24:54;4.60;;;1.70;;
57291;SDS011;43144;50.972;18.220;2022-08-11T12:27:22;4.30;;;1.00;;
57291;SDS011;43144;50.972;18.220;2022-08-11T12:29:52;2.60;;;0.90;;
57291;SDS011;43144;50.972;18.220;2022-08-11T12:32:22;1.70;;;0.70;;
57291;SDS011;43144;50.972;18.220;2022-08-11T12:34:52;2.20;;;0.90;;
57291;SDS011;43144;50.972;18.220;2022-08-11T12:37:22;2.60;;;0.90;;
57291;SDS011;43144;50.972;18.220;2022-08-11T12:39:53;1.20;;;1.00;;
57291;SDS011;43144;50.972;18.220;2022-08-11T12:42:26;1.90;;;0.60;;
57291;SDS011;43144;50.972;18.220;2022-08-11T12:44:57;1.00;;;0.80;;
57291;SDS011;43144;50.972;18.220;2022-08-11T12:47:26;2.20;;;0.90;;
57291;SDS011;43144;50.972;18.220;2022-08-11T12:49:54;13.20;;;1.60;;
57291;SDS011;43144;50.972;18.220;2022-08-11T12:52:24;6.00;;;1.00;;
57291;SDS011;43144;50.972;18.220;2022-08-11T12:54:57;2.00;;;0.80;;
57291;SDS011;43144;50.972;18.220;2022-08-11T12:57:28;2.60;;;0.70;;
57291;SDS011;43144;50.972;18.220;2022-08-11T12:59:59;1.40;;;0.70;;
57291;SDS011;43144;50.972;18.220;2022-08-11T13:02:30;6.40;;;1.30;;
57291;SDS011;43144;50.972;18.220;2022-08-11T13:04:58;1.70;;;0.70;;
57291;SDS011;43144;50.972;18.220;2022-08-11T13:07:27;2.40;;;0.70;;
57291;SDS011;43144;50.972;18.220;2022-08-11T13:09:57;1.10;;;0.80;;
57291;SDS011;43144;50.972;18.220;2022-08-11T13:12:26;1.20;;;0.90;;
57291;SDS011;43144;50.972;18.220;2022-08-11T13:14:55;4.40;;;0.80;;
57291;SDS011;43144;50.972;18.220;2022-08-11T13:17:24;1.50;;;0.80;;
57291;SDS011;43144;50.972;18.220;2022-08-11T13:19:53;1.90;;;0.80;;
57291;SDS011;43144;50.972;18.220;2022-08-11T13:22:21;2.00;;;0.70;;
57291;SDS011;43144;50.972;18.220;2022-08-11T13:24:50;1.90;;;0.80;;
57291;SDS011;43144;50.972;18.220;2022-08-11T13:27:18;4.40;;;1.00;;
57291;SDS011;43144;50.972;18.220;2022-08-11T13:29:47;3.80;;;0.70;;
57291;SDS011;43144;50.972;18.220;2022-08-11T13:32:16;2.60;;;0.70;;
57291;SDS011;43144;50.972;18.220;2022-08-11T13:34:46;2.40;;;0.70;;
57291;SDS011;43144;50.972;18.220;2022-08-11T13:37:14;2.30;;;0.70;;
57291;SDS011;43144;50.972;18.220;2022-08-11T13:39:43;3.60;;;0.90;;
57291;SDS011;43144;50.972;18.220;2022-08-11T13:42:12;1.10;;;0.70;;
57291;SDS011;43144;50.972;18.220;2022-08-11T13:44:41;3.20;;;0.90;;
57291;SDS011;43144;50.972;18.220;2022-08-11T13:47:11;3.60;;;0.80;;
57291;SDS011;43144;50.972;18.220;2022-08-11T13:49:40;4.70;;;1.00;;
57291;SDS011;43144;50.972;18.220;2022-08-11T13:52:10;2.10;;;0.70;;
57291;SDS011;43144;50.972;18.220;2022-08-11T13:54:41;2.10;;;0.70;;
57291;SDS011;43144;50.972;18.220;2022-08-11T13:57:11;2.20;;;0.80;;
57291;SDS011;43144;50.972;18.220;2022-08-11T13:59:41;2.20;;;0.70;;
57291;SDS011;43144;50.972;18.220;2022-08-11T14:02:12;1.80;;;0.90;;
57291;SDS011;43144;50.972;18.220;2022-08-11T14:04:44;1.30;;;0.80;;
57291;SDS011;43144;50.972;18.220;2022-08-11T14:07:17;1.50;;;0.70;;
57291;SDS011;43144;50.972;18.220;2022-08-11T14:09:47;2.30;;;0.70;;
57291;SDS011;43144;50.972;18.220;2022-08-11T14:12:22;3.20;;;0.70;;
57291;SDS011;43144;50.972;18.220;2022-08-11T14:14:55;3.60;;;0.80;;
57291;SDS011;43144;50.972;18.220;2022-08-11T14:17:31;5.00;;;0.90;;
57291;SDS011;43144;50.972;18.220;2022-08-11T14:20:02;2.40;;;0.80;;
57291;SDS011;43144;50.972;18.220;2022-08-11T14:22:32;1.50;;;0.70;;
57291;SDS011;43144;50.972;18.220;2022-08-11T14:25:02;1.30;;;0.80;;
57291;SDS011;43144;50.972;18.220;2022-08-11T14:27:31;3.70;;;1.20;;
57291;SDS011;43144;50.972;18.220;2022-08-11T14:29:59;5.40;;;1.30;;
57291;SDS011;43144;50.972;18.220;2022-08-11T14:32:27;1.40;;;0.70;;
57291;SDS011;43144;50.972;18.220;2022-08-11T14:34:56;3.10;;;1.00;;
57291;SDS011;43144;50.972;18.220;2022-08-11T14:37:25;3.00;;;0.80;;
57291;SDS011;43144;50.972;18.220;2022-08-11T14:39:55;1.70;;;1.10;;
57291;SDS011;43144;50.972;18.220;2022-08-11T14:42:25;3.90;;;0.70;;
57291;SDS011;43144;50.972;18.220;2022-08-11T14:44:55;2.80;;;0.80;;
57291;SDS011;43144;50.972;18.220;2022-08-11T14:47:24;4.10;;;0.90;;
57291;SDS011;43144;50.972;18.220;2022-08-11T14:49:54;2.70;;;0.80;;
57291;SDS011;43144;50.972;18.220;2022-08-11T14:52:24;1.60;;;0.60;;
57291;SDS011;43144;50.972;18.220;2022-08-11T14:54:52;2.30;;;0.70;;
57291;SDS011;43144;50.972;18.220;2022-08-11T14:57:21;34.80;;;2.70;;
57291;SDS011;43144;50.972;18.220;2022-08-11T14:59:50;29.10;;;1.70;;
57291;SDS011;43144;50.972;18.220;2022-08-11T15:02:18;9.80;;;1.40;;
57291;SDS011;43144;50.972;18.220;2022-08-11T15:04:47;6.50;;;1.10;;
57291;SDS011;43144;50.972;18.220;2022-08-11T15:07:15;9.40;;;1.10;;
57291;SDS011;43144;50.972;18.220;2022-08-11T15:09:44;8.60;;;0.90;;
57291;SDS011;43144;50.972;18.220;2022-08-11T15:12:13;6.90;;;1.20;;
57291;SDS011;43144;50.972;18.220;2022-08-11T15:14:43;4.60;;;1.40;;
57291;SDS011;43144;50.972;18.220;2022-08-11T15:17:11;6.00;;;1.30;;
57291;SDS011;43144;50.972;18.220;2022-08-11T15:19:40;3.90;;;1.10;;
57291;SDS011;43144;50.972;18.220;2022-08-11T15:22:10;3.80;;;1.30;;
57291;SDS011;43144;50.972;18.220;2022-08-11T15:24:39;5.00;;;1.00;;
57291;SDS011;43144;50.972;18.220;2022-08-11T15:27:08;3.10;;;1.10;;
57291;SDS011;43144;50.972;18.220;2022-08-11T15:29:40;3.00;;;1.00;;
57291;SDS011;43144;50.972;18.220;2022-08-11T15:32:09;8.20;;;1.10;;
57291;SDS011;43144;50.972;18.220;2022-08-11T15:34:37;3.00;;;2.00;;
57291;SDS011;43144;50.972;18.220;2022-08-11T15:37:08;2.70;;;1.10;;
57291;SDS011;43144;50.972;18.220;2022-08-11T15:39:40;2.30;;;1.10;;
57291;SDS011;43144;50.972;18.220;2022-08-11T15:42:13;4.00;;;1.80;;
57291;SDS011;43144;50.972;18.220;2022-08-11T15:44:45;2.60;;;1.20;;
57291;SDS011;43144;50.972;18.220;2022-08-11T15:47:17;2.20;;;1.00;;
57291;SDS011;43144;50.972;18.220;2022-08-11T15:49:45;3.00;;;1.10;;
57291;SDS011;43144;50.972;18.220;2022-08-11T15:52:20;1.50;;;0.90;;
57291;SDS011;43144;50.972;18.220;2022-08-11T15:54:48;1.70;;;1.00;;
57291;SDS011;43144;50.972;18.220;2022-08-11T15:57:17;3.10;;;1.00;;
57291;SDS011;43144;50.972;18.220;2022-08-11T15:59:47;2.80;;;1.00;;
57291;SDS011;43144;50.972;18.220;2022-08-11T16:02:16;1.90;;;1.10;;
57291;SDS011;43144;50.972;18.220;2022-08-11T16:04:47;2.70;;;1.20;;
57291;SDS011;43144;50.972;18.220;2022-08-11T16:07:16;2.60;;;1.00;;
57291;SDS011;43144;50.972;18.220;2022-08-11T16:09:48;1.10;;;1.00;;
57291;SDS011;43144;50.972;18.220;2022-08-11T16:12:20;2.10;;;1.00;;
57291;SDS011;43144;50.972;18.220;2022-08-11T16:14:51;2.40;;;1.50;;
57291;SDS011;43144;50.972;18.220;2022-08-11T16:17:23;4.00;;;2.10;;